sensor_id;sensor_type;location;lat;lon;timestamp;temperature;humidity
26595;DHT22;14238;49.496;8.154;2023-06-10T00:01:41;17.20;99.90
26595;DHT22;14238;49.496;8.154;2023-06-10T00:04:07;17.10;99.90
26595;DHT22;14238;49.496;8.154;2023-06-10T00:06:32;17.10;99.90
26595;DHT22;14238;49.496;8.154;2023-06-10T00:09:07;17.30;99.90
26595;DHT22;14238;49.496;8.154;2023-06-10T00:11:36;17.10;99.90
26595;DHT22;14238;49.496;8.154;2023-06-10T00:14:03;16.90;99.90
26595;DHT22;14238;49.496;8.154;2023-06-10T00:16:29;17.00;99.90
26595;DHT22;14238;49.496;8.154;2023-06-10T00:18:54;16.80;99.90
26595;DHT22;14238;49.496;8.154;2023-06-10T00:21:32;16.90;99.90
26595;DHT22;14238;49.496;8.154;2023-06-10T00:24:07;17.00;99.90
26595;DHT22;14238;49.496;8.154;2023-06-10T00:26:35;17.10;99.90
26595;DHT22;14238;49.496;8.154;2023-06-10T00:29:01;16.90;99.90
26595;DHT22;14238;49.496;8.154;2023-06-10T00:31:26;16.90;99.90
26595;DHT22;14238;49.496;8.154;2023-06-10T00:33:52;17.00;99.90
26595;DHT22;14238;49.496;8.154;2023-06-10T00:36:18;16.90;99.90
26595;DHT22;14238;49.496;8.154;2023-06-10T00:38:43;16.90;99.90
26595;DHT22;14238;49.496;8.154;2023-06-10T00:41:09;16.70;99.90
26595;DHT22;14238;49.496;8.154;2023-06-10T00:43:34;16.70;99.90
26595;DHT22;14238;49.496;8.154;2023-06-10T00:46:00;16.80;99.90
26595;DHT22;14238;49.496;8.154;2023-06-10T00:48:26;16.80;99.90
26595;DHT22;14238;49.496;8.154;2023-06-10T00:50:52;16.70;99.90
26595;DHT22;14238;49.496;8.154;2023-06-10T00:53:18;16.80;99.90
26595;DHT22;14238;49.496;8.154;2023-06-10T00:55:43;16.70;99.90
26595;DHT22;14238;49.496;8.154;2023-06-10T00:58:10;16.80;99.90
26595;DHT22;14238;49.496;8.154;2023-06-10T01:00:36;16.80;99.90
26595;DHT22;14238;49.496;8.154;2023-06-10T01:03:02;16.80;99.90
26595;DHT22;14238;49.496;8.154;2023-06-10T01:05:27;16.60;99.90
26595;DHT22;14238;49.496;8.154;2023-06-10T01:08:15;16.80;99.90
26595;DHT22;14238;49.496;8.154;2023-06-10T01:11:13;16.70;99.90
26595;DHT22;14238;49.496;8.154;2023-06-10T01:13:41;16.80;99.90
26595;DHT22;14238;49.496;8.154;2023-06-10T01:16:06;16.80;99.90
26595;DHT22;14238;49.496;8.154;2023-06-10T01:18:33;16.80;99.90
26595;DHT22;14238;49.496;8.154;2023-06-10T01:20:58;16.70;99.90
26595;DHT22;14238;49.496;8.154;2023-06-10T01:23:24;16.80;99.90
26595;DHT22;14238;49.496;8.154;2023-06-10T01:25:56;16.80;99.90
26595;DHT22;14238;49.496;8.154;2023-06-10T01:28:36;16.70;99.90
26595;DHT22;14238;49.496;8.154;2023-06-10T01:31:16;16.90;99.90
26595;DHT22;14238;49.496;8.154;2023-06-10T01:33:46;16.80;99.90
26595;DHT22;14238;49.496;8.154;2023-06-10T01:36:13;16.80;99.90
26595;DHT22;14238;49.496;8.154;2023-06-10T01:38:43;16.80;99.90
26595;DHT22;14238;49.496;8.154;2023-06-10T01:41:13;16.70;99.90
26595;DHT22;14238;49.496;8.154;2023-06-10T01:43:39;16.60;99.90
26595;DHT22;14238;49.496;8.154;2023-06-10T01:46:06;16.50;99.90
26595;DHT22;14238;49.496;8.154;2023-06-10T01:48:32;16.50;99.90
26595;DHT22;14238;49.496;8.154;2023-06-10T01:50:57;16.60;99.90
26595;DHT22;14238;49.496;8.154;2023-06-10T01:53:23;16.60;99.90
26595;DHT22;14238;49.496;8.154;2023-06-10T01:55:49;16.70;99.90
26595;DHT22;14238;49.496;8.154;2023-06-10T01:58:15;16.50;99.90
26595;DHT22;14238;49.496;8.154;2023-06-10T02:00:40;16.50;99.90
26595;DHT22;14238;49.496;8.154;2023-06-10T02:03:06;16.40;99.90
26595;DHT22;14238;49.496;8.154;2023-06-10T02:05:31;16.40;99.90
26595;DHT22;14238;49.496;8.154;2023-06-10T02:07:57;16.40;99.90
26595;DHT22;14238;49.496;8.154;2023-06-10T02:10:23;16.30;99.90
26595;DHT22;14238;49.496;8.154;2023-06-10T02:12:48;16.20;99.90
26595;DHT22;14238;49.496;8.154;2023-06-10T02:15:14;16.20;99.90
26595;DHT22;14238;49.496;8.154;2023-06-10T02:17:39;16.20;99.90
26595;DHT22;14238;49.496;8.154;2023-06-10T02:20:06;16.00;99.90
26595;DHT22;14238;49.496;8.154;2023-06-10T02:22:33;16.00;99.90
26595;DHT22;14238;49.496;8.154;2023-06-10T02:24:58;16.10;99.90
26595;DHT22;14238;49.496;8.154;2023-06-10T02:27:24;16.00;99.90
26595;DHT22;14238;49.496;8.154;2023-06-10T02:29:50;16.00;99.90
26595;DHT22;14238;49.496;8.154;2023-06-10T02:32:15;16.00;99.90
26595;DHT22;14238;49.496;8.154;2023-06-10T02:34:41;16.10;99.90
26595;DHT22;14238;49.496;8.154;2023-06-10T02:37:08;16.10;99.90
26595;DHT22;14238;49.496;8.154;2023-06-10T02:39:34;16.10;99.90
26595;DHT22;14238;49.496;8.154;2023-06-10T02:41:59;16.00;99.90
26595;DHT22;14238;49.496;8.154;2023-06-10T02:44:25;15.80;99.90
26595;DHT22;14238;49.496;8.154;2023-06-10T02:46:50;15.90;99.90
26595;DHT22;14238;49.496;8.154;2023-06-10T02:49:16;15.80;99.90
26595;DHT22;14238;49.496;8.154;2023-06-10T02:51:41;15.90;99.90
26595;DHT22;14238;49.496;8.154;2023-06-10T02:54:07;15.80;99.90
26595;DHT22;14238;49.496;8.154;2023-06-10T02:56:32;16.00;99.90
26595;DHT22;14238;49.496;8.154;2023-06-10T02:58:58;15.70;99.90
26595;DHT22;14238;49.496;8.154;2023-06-10T03:01:24;15.80;99.90
26595;DHT22;14238;49.496;8.154;2023-06-10T03:03:50;15.80;99.90
26595;DHT22;14238;49.496;8.154;2023-06-10T03:06:16;15.60;99.90
26595;DHT22;14238;49.496;8.154;2023-06-10T03:08:42;15.50;99.90
26595;DHT22;14238;49.496;8.154;2023-06-10T03:11:08;15.50;99.90
26595;DHT22;14238;49.496;8.154;2023-06-10T03:13:33;15.60;99.90
26595;DHT22;14238;49.496;8.154;2023-06-10T03:15:59;15.60;99.90
26595;DHT22;14238;49.496;8.154;2023-06-10T03:18:26;15.60;99.90
26595;DHT22;14238;49.496;8.154;2023-06-10T03:20:52;15.70;99.90
26595;DHT22;14238;49.496;8.154;2023-06-10T03:23:20;15.70;99.90
26595;DHT22;14238;49.496;8.154;2023-06-10T03:25:46;15.70;99.90
26595;DHT22;14238;49.496;8.154;2023-06-10T03:28:11;15.80;99.90
26595;DHT22;14238;49.496;8.154;2023-06-10T03:30:37;15.70;99.90
26595;DHT22;14238;49.496;8.154;2023-06-10T03:33:02;15.60;99.90
26595;DHT22;14238;49.496;8.154;2023-06-10T03:35:29;15.50;99.90
26595;DHT22;14238;49.496;8.154;2023-06-10T03:37:54;15.50;99.90
26595;DHT22;14238;49.496;8.154;2023-06-10T03:40:20;15.40;99.90
26595;DHT22;14238;49.496;8.154;2023-06-10T03:42:45;15.40;99.90
26595;DHT22;14238;49.496;8.154;2023-06-10T03:45:11;15.50;99.90
26595;DHT22;14238;49.496;8.154;2023-06-10T03:47:37;15.60;99.90
26595;DHT22;14238;49.496;8.154;2023-06-10T03:50:04;15.60;99.90
26595;DHT22;14238;49.496;8.154;2023-06-10T03:52:30;15.60;99.90
26595;DHT22;14238;49.496;8.154;2023-06-10T03:54:56;15.60;99.90
26595;DHT22;14238;49.496;8.154;2023-06-10T03:57:21;15.60;99.90
26595;DHT22;14238;49.496;8.154;2023-06-10T03:59:47;15.60;99.90
26595;DHT22;14238;49.496;8.154;2023-06-10T04:02:12;15.60;99.90
26595;DHT22;14238;49.496;8.154;2023-06-10T04:04:38;15.70;99.90
26595;DHT22;14238;49.496;8.154;2023-06-10T04:07:04;15.70;99.90
26595;DHT22;14238;49.496;8.154;2023-06-10T04:09:30;15.70;99.90
26595;DHT22;14238;49.496;8.154;2023-06-10T04:11:56;15.90;99.90
26595;DHT22;14238;49.496;8.154;2023-06-10T04:14:21;15.80;99.90
26595;DHT22;14238;49.496;8.154;2023-06-10T04:16:47;15.90;99.90
26595;DHT22;14238;49.496;8.154;2023-06-10T04:19:13;16.00;99.90
26595;DHT22;14238;49.496;8.154;2023-06-10T04:21:38;16.10;99.90
26595;DHT22;14238;49.496;8.154;2023-06-10T04:24:04;16.20;99.90
26595;DHT22;14238;49.496;8.154;2023-06-10T04:26:29;16.30;99.90
26595;DHT22;14238;49.496;8.154;2023-06-10T04:28:55;16.20;99.90
26595;DHT22;14238;49.496;8.154;2023-06-10T04:31:20;16.30;99.90
26595;DHT22;14238;49.496;8.154;2023-06-10T04:33:46;16.40;99.90
26595;DHT22;14238;49.496;8.154;2023-06-10T04:36:11;16.40;99.90
26595;DHT22;14238;49.496;8.154;2023-06-10T04:38:37;16.50;99.90
26595;DHT22;14238;49.496;8.154;2023-06-10T04:41:03;16.50;99.90
26595;DHT22;14238;49.496;8.154;2023-06-10T04:43:29;16.60;99.90
26595;DHT22;14238;49.496;8.154;2023-06-10T04:45:56;16.80;99.90
26595;DHT22;14238;49.496;8.154;2023-06-10T04:48:21;17.00;99.90
26595;DHT22;14238;49.496;8.154;2023-06-10T04:50:49;17.20;99.90
26595;DHT22;14238;49.496;8.154;2023-06-10T04:53:15;17.40;99.90
26595;DHT22;14238;49.496;8.154;2023-06-10T04:55:41;17.60;99.90
26595;DHT22;14238;49.496;8.154;2023-06-10T04:58:07;17.80;99.90
26595;DHT22;14238;49.496;8.154;2023-06-10T05:00:32;17.90;99.90
26595;DHT22;14238;49.496;8.154;2023-06-10T05:02:58;17.90;99.90
26595;DHT22;14238;49.496;8.154;2023-06-10T05:05:23;18.00;99.90
26595;DHT22;14238;49.496;8.154;2023-06-10T05:07:49;18.10;99.90
26595;DHT22;14238;49.496;8.154;2023-06-10T05:10:15;18.20;99.90
26595;DHT22;14238;49.496;8.154;2023-06-10T05:12:40;18.30;99.90
26595;DHT22;14238;49.496;8.154;2023-06-10T05:15:07;18.40;99.90
26595;DHT22;14238;49.496;8.154;2023-06-10T05:17:32;18.40;99.90
26595;DHT22;14238;49.496;8.154;2023-06-10T05:19:58;18.60;99.90
26595;DHT22;14238;49.496;8.154;2023-06-10T05:22:24;18.60;99.90
26595;DHT22;14238;49.496;8.154;2023-06-10T05:24:50;18.60;99.90
26595;DHT22;14238;49.496;8.154;2023-06-10T05:27:16;18.70;99.90
26595;DHT22;14238;49.496;8.154;2023-06-10T05:29:42;18.70;99.90
26595;DHT22;14238;49.496;8.154;2023-06-10T05:32:08;18.70;99.90
26595;DHT22;14238;49.496;8.154;2023-06-10T05:34:33;18.80;99.90
26595;DHT22;14238;49.496;8.154;2023-06-10T05:36:59;18.80;99.90
26595;DHT22;14238;49.496;8.154;2023-06-10T05:39:25;18.90;99.90
26595;DHT22;14238;49.496;8.154;2023-06-10T05:41:50;18.90;99.90
26595;DHT22;14238;49.496;8.154;2023-06-10T05:44:16;19.00;99.90
26595;DHT22;14238;49.496;8.154;2023-06-10T05:46:41;19.00;99.90
26595;DHT22;14238;49.496;8.154;2023-06-10T05:49:07;19.00;99.90
26595;DHT22;14238;49.496;8.154;2023-06-10T05:51:32;19.10;99.90
26595;DHT22;14238;49.496;8.154;2023-06-10T05:53:58;19.20;99.90
26595;DHT22;14238;49.496;8.154;2023-06-10T05:56:24;19.20;99.90
26595;DHT22;14238;49.496;8.154;2023-06-10T05:58:51;19.30;99.90
26595;DHT22;14238;49.496;8.154;2023-06-10T06:01:16;19.30;99.90
26595;DHT22;14238;49.496;8.154;2023-06-10T06:03:42;19.40;99.90
26595;DHT22;14238;49.496;8.154;2023-06-10T06:06:07;19.40;99.90
26595;DHT22;14238;49.496;8.154;2023-06-10T06:08:33;19.50;99.90
26595;DHT22;14238;49.496;8.154;2023-06-10T06:10:58;19.50;99.90
26595;DHT22;14238;49.496;8.154;2023-06-10T06:13:24;19.50;99.90
26595;DHT22;14238;49.496;8.154;2023-06-10T06:15:50;19.60;99.90
26595;DHT22;14238;49.496;8.154;2023-06-10T06:18:15;19.60;99.90
26595;DHT22;14238;49.496;8.154;2023-06-10T06:20:41;19.60;99.90
26595;DHT22;14238;49.496;8.154;2023-06-10T06:23:07;19.70;99.90
26595;DHT22;14238;49.496;8.154;2023-06-10T06:25:35;19.80;99.90
26595;DHT22;14238;49.496;8.154;2023-06-10T06:28:01;19.90;99.90
26595;DHT22;14238;49.496;8.154;2023-06-10T06:30:27;20.00;99.90
26595;DHT22;14238;49.496;8.154;2023-06-10T06:32:52;20.00;99.90
26595;DHT22;14238;49.496;8.154;2023-06-10T06:35:18;20.20;99.90
26595;DHT22;14238;49.496;8.154;2023-06-10T06:37:44;20.20;99.90
26595;DHT22;14238;49.496;8.154;2023-06-10T06:40:10;20.30;99.90
26595;DHT22;14238;49.496;8.154;2023-06-10T06:42:35;20.30;99.90
26595;DHT22;14238;49.496;8.154;2023-06-10T06:45:01;20.40;99.90
26595;DHT22;14238;49.496;8.154;2023-06-10T06:47:26;20.40;99.90
26595;DHT22;14238;49.496;8.154;2023-06-10T06:49:52;20.50;99.90
26595;DHT22;14238;49.496;8.154;2023-06-10T06:52:18;20.50;99.90
26595;DHT22;14238;49.496;8.154;2023-06-10T06:54:44;20.60;99.90
26595;DHT22;14238;49.496;8.154;2023-06-10T06:57:10;20.60;99.90
26595;DHT22;14238;49.496;8.154;2023-06-10T06:59:35;20.80;99.90
26595;DHT22;14238;49.496;8.154;2023-06-10T07:02:03;20.80;99.90
26595;DHT22;14238;49.496;8.154;2023-06-10T07:04:28;20.80;99.90
26595;DHT22;14238;49.496;8.154;2023-06-10T07:06:54;20.90;99.90
26595;DHT22;14238;49.496;8.154;2023-06-10T07:09:19;21.00;99.90
26595;DHT22;14238;49.496;8.154;2023-06-10T07:11:45;21.10;99.90
26595;DHT22;14238;49.496;8.154;2023-06-10T07:14:11;21.30;99.90
26595;DHT22;14238;49.496;8.154;2023-06-10T07:16:36;21.40;99.90
26595;DHT22;14238;49.496;8.154;2023-06-10T07:19:02;21.40;99.90
26595;DHT22;14238;49.496;8.154;2023-06-10T07:21:27;21.40;99.90
26595;DHT22;14238;49.496;8.154;2023-06-10T07:23:54;21.60;99.90
26595;DHT22;14238;49.496;8.154;2023-06-10T07:26:21;21.80;99.90
26595;DHT22;14238;49.496;8.154;2023-06-10T07:28:47;21.90;99.90
26595;DHT22;14238;49.496;8.154;2023-06-10T07:31:12;22.00;99.90
26595;DHT22;14238;49.496;8.154;2023-06-10T07:33:38;22.00;99.90
26595;DHT22;14238;49.496;8.154;2023-06-10T07:36:07;22.00;99.90
26595;DHT22;14238;49.496;8.154;2023-06-10T07:38:32;22.10;99.90
26595;DHT22;14238;49.496;8.154;2023-06-10T07:40:58;22.40;99.90
26595;DHT22;14238;49.496;8.154;2023-06-10T07:43:24;22.60;99.90
26595;DHT22;14238;49.496;8.154;2023-06-10T07:45:50;22.70;99.90
26595;DHT22;14238;49.496;8.154;2023-06-10T07:48:15;22.70;99.90
26595;DHT22;14238;49.496;8.154;2023-06-10T07:50:41;22.80;99.90
26595;DHT22;14238;49.496;8.154;2023-06-10T07:53:07;22.70;99.90
26595;DHT22;14238;49.496;8.154;2023-06-10T07:55:32;22.70;99.90
26595;DHT22;14238;49.496;8.154;2023-06-10T07:57:58;22.90;99.90
26595;DHT22;14238;49.496;8.154;2023-06-10T08:00:23;23.00;99.90
26595;DHT22;14238;49.496;8.154;2023-06-10T08:02:49;23.30;99.90
26595;DHT22;14238;49.496;8.154;2023-06-10T08:05:16;23.40;99.90
26595;DHT22;14238;49.496;8.154;2023-06-10T08:07:42;23.30;99.90
26595;DHT22;14238;49.496;8.154;2023-06-10T08:10:07;23.30;99.90
26595;DHT22;14238;49.496;8.154;2023-06-10T08:12:34;23.50;99.90
26595;DHT22;14238;49.496;8.154;2023-06-10T08:15:00;23.90;99.90
26595;DHT22;14238;49.496;8.154;2023-06-10T08:17:26;23.80;99.90
26595;DHT22;14238;49.496;8.154;2023-06-10T08:19:51;23.90;99.90
26595;DHT22;14238;49.496;8.154;2023-06-10T08:22:17;24.00;99.90
26595;DHT22;14238;49.496;8.154;2023-06-10T08:24:43;24.20;99.90
26595;DHT22;14238;49.496;8.154;2023-06-10T08:27:08;24.40;99.90
26595;DHT22;14238;49.496;8.154;2023-06-10T08:29:34;24.60;99.90
26595;DHT22;14238;49.496;8.154;2023-06-10T08:32:00;24.90;99.90
26595;DHT22;14238;49.496;8.154;2023-06-10T08:34:25;25.00;99.90
26595;DHT22;14238;49.496;8.154;2023-06-10T08:36:51;24.90;99.90
26595;DHT22;14238;49.496;8.154;2023-06-10T08:39:21;25.20;99.90
26595;DHT22;14238;49.496;8.154;2023-06-10T08:42:10;25.20;99.20
26595;DHT22;14238;49.496;8.154;2023-06-10T08:44:36;25.30;99.90
26595;DHT22;14238;49.496;8.154;2023-06-10T08:47:16;25.70;99.90
26595;DHT22;14238;49.496;8.154;2023-06-10T08:49:46;26.10;99.20
26595;DHT22;14238;49.496;8.154;2023-06-10T08:52:16;25.80;98.90
26595;DHT22;14238;49.496;8.154;2023-06-10T08:54:56;25.70;99.20
26595;DHT22;14238;49.496;8.154;2023-06-10T08:57:22;25.70;99.90
26595;DHT22;14238;49.496;8.154;2023-06-10T08:59:49;25.70;99.10
26595;DHT22;14238;49.496;8.154;2023-06-10T09:02:15;25.60;98.90
26595;DHT22;14238;49.496;8.154;2023-06-10T09:04:42;25.70;99.40
26595;DHT22;14238;49.496;8.154;2023-06-10T09:07:09;25.90;99.10
26595;DHT22;14238;49.496;8.154;2023-06-10T09:09:36;25.90;99.20
26595;DHT22;14238;49.496;8.154;2023-06-10T09:12:02;26.30;99.70
26595;DHT22;14238;49.496;8.154;2023-06-10T09:14:28;26.50;99.50
26595;DHT22;14238;49.496;8.154;2023-06-10T09:16:54;26.50;99.10
26595;DHT22;14238;49.496;8.154;2023-06-10T09:19:23;26.60;99.10
26595;DHT22;14238;49.496;8.154;2023-06-10T09:21:50;26.70;98.40
26595;DHT22;14238;49.496;8.154;2023-06-10T09:24:16;26.60;97.90
26595;DHT22;14238;49.496;8.154;2023-06-10T09:26:43;26.30;97.80
26595;DHT22;14238;49.496;8.154;2023-06-10T09:29:08;26.90;98.00
26595;DHT22;14238;49.496;8.154;2023-06-10T09:31:38;27.00;98.40
26595;DHT22;14238;49.496;8.154;2023-06-10T09:34:14;26.80;98.20
26595;DHT22;14238;49.496;8.154;2023-06-10T09:36:41;26.90;98.50
26595;DHT22;14238;49.496;8.154;2023-06-10T09:39:16;26.90;97.50
26595;DHT22;14238;49.496;8.154;2023-06-10T09:41:43;27.10;98.20
26595;DHT22;14238;49.496;8.154;2023-06-10T09:44:12;27.30;97.70
26595;DHT22;14238;49.496;8.154;2023-06-10T09:46:38;27.60;96.70
26595;DHT22;14238;49.496;8.154;2023-06-10T09:49:04;27.40;96.40
26595;DHT22;14238;49.496;8.154;2023-06-10T09:51:29;27.20;96.80
26595;DHT22;14238;49.496;8.154;2023-06-10T09:53:55;27.00;96.80
26595;DHT22;14238;49.496;8.154;2023-06-10T09:56:21;27.20;96.60
26595;DHT22;14238;49.496;8.154;2023-06-10T09:58:53;27.40;95.20
26595;DHT22;14238;49.496;8.154;2023-06-10T10:01:18;27.40;96.60
26595;DHT22;14238;49.496;8.154;2023-06-10T10:03:48;27.40;96.90
26595;DHT22;14238;49.496;8.154;2023-06-10T10:06:16;27.40;96.70
26595;DHT22;14238;49.496;8.154;2023-06-10T10:08:42;27.60;96.70
26595;DHT22;14238;49.496;8.154;2023-06-10T10:11:08;27.60;96.30
26595;DHT22;14238;49.496;8.154;2023-06-10T10:13:34;27.50;96.10
26595;DHT22;14238;49.496;8.154;2023-06-10T10:16:05;27.70;96.10
26595;DHT22;14238;49.496;8.154;2023-06-10T10:18:32;28.00;96.10
26595;DHT22;14238;49.496;8.154;2023-06-10T10:21:01;27.90;95.80
26595;DHT22;14238;49.496;8.154;2023-06-10T10:24:03;28.20;96.10
26595;DHT22;14238;49.496;8.154;2023-06-10T10:26:26;28.20;96.50
26595;DHT22;14238;49.496;8.154;2023-06-10T10:29:10;28.50;95.90
26595;DHT22;14238;49.496;8.154;2023-06-10T10:31:37;28.90;95.50
26595;DHT22;14238;49.496;8.154;2023-06-10T10:34:11;28.80;95.70
26595;DHT22;14238;49.496;8.154;2023-06-10T10:36:38;28.40;94.60
26595;DHT22;14238;49.496;8.154;2023-06-10T10:39:04;28.40;94.80
26595;DHT22;14238;49.496;8.154;2023-06-10T10:41:31;28.60;93.90
26595;DHT22;14238;49.496;8.154;2023-06-10T10:43:58;28.80;94.90
26595;DHT22;14238;49.496;8.154;2023-06-10T10:46:24;28.50;95.00
26595;DHT22;14238;49.496;8.154;2023-06-10T10:48:53;28.60;96.20
26595;DHT22;14238;49.496;8.154;2023-06-10T10:51:23;28.90;94.10
26595;DHT22;14238;49.496;8.154;2023-06-10T10:54:12;28.90;93.50
26595;DHT22;14238;49.496;8.154;2023-06-10T10:56:38;29.00;95.40
26595;DHT22;14238;49.496;8.154;2023-06-10T10:59:05;28.80;93.10
26595;DHT22;14238;49.496;8.154;2023-06-10T11:01:43;28.70;93.10
26595;DHT22;14238;49.496;8.154;2023-06-10T11:04:11;29.30;94.50
26595;DHT22;14238;49.496;8.154;2023-06-10T11:06:37;29.20;93.30
26595;DHT22;14238;49.496;8.154;2023-06-10T11:09:29;28.90;92.80
26595;DHT22;14238;49.496;8.154;2023-06-10T11:11:56;28.90;93.50
26595;DHT22;14238;49.496;8.154;2023-06-10T11:14:28;28.50;92.90
26595;DHT22;14238;49.496;8.154;2023-06-10T11:16:57;28.30;94.40
26595;DHT22;14238;49.496;8.154;2023-06-10T11:19:36;29.00;94.70
26595;DHT22;14238;49.496;8.154;2023-06-10T11:22:07;28.80;94.40
26595;DHT22;14238;49.496;8.154;2023-06-10T11:24:33;29.30;93.80
26595;DHT22;14238;49.496;8.154;2023-06-10T11:27:20;29.60;93.00
26595;DHT22;14238;49.496;8.154;2023-06-10T11:32:34;29.30;92.30
26595;DHT22;14238;49.496;8.154;2023-06-10T11:35:03;30.00;92.70
26595;DHT22;14238;49.496;8.154;2023-06-10T11:37:28;30.30;92.80
26595;DHT22;14238;49.496;8.154;2023-06-10T11:39:55;30.70;91.00
26595;DHT22;14238;49.496;8.154;2023-06-10T11:42:22;30.90;88.20
26595;DHT22;14238;49.496;8.154;2023-06-10T11:44:53;31.10;85.00
26595;DHT22;14238;49.496;8.154;2023-06-10T11:47:19;31.60;87.10
26595;DHT22;14238;49.496;8.154;2023-06-10T11:49:46;31.40;86.10
26595;DHT22;14238;49.496;8.154;2023-06-10T11:52:26;31.20;84.00
26595;DHT22;14238;49.496;8.154;2023-06-10T11:54:56;31.40;85.40
26595;DHT22;14238;49.496;8.154;2023-06-10T11:57:21;31.30;85.60
26595;DHT22;14238;49.496;8.154;2023-06-10T11:59:47;31.30;85.30
26595;DHT22;14238;49.496;8.154;2023-06-10T12:02:16;31.20;86.00
26595;DHT22;14238;49.496;8.154;2023-06-10T12:04:42;30.90;82.90
26595;DHT22;14238;49.496;8.154;2023-06-10T12:07:08;29.70;85.30
26595;DHT22;14238;49.496;8.154;2023-06-10T12:09:33;29.90;86.80
26595;DHT22;14238;49.496;8.154;2023-06-10T12:12:00;30.50;84.60
26595;DHT22;14238;49.496;8.154;2023-06-10T12:14:55;30.50;84.70
26595;DHT22;14238;49.496;8.154;2023-06-10T12:17:42;29.90;83.60
26595;DHT22;14238;49.496;8.154;2023-06-10T12:20:24;29.00;86.50
26595;DHT22;14238;49.496;8.154;2023-06-10T12:22:50;29.20;87.90
26595;DHT22;14238;49.496;8.154;2023-06-10T12:25:16;29.50;86.60
26595;DHT22;14238;49.496;8.154;2023-06-10T12:27:51;29.90;86.30
26595;DHT22;14238;49.496;8.154;2023-06-10T12:30:22;30.80;83.90
26595;DHT22;14238;49.496;8.154;2023-06-10T12:32:50;29.80;84.70
26595;DHT22;14238;49.496;8.154;2023-06-10T12:35:18;29.30;86.70
26595;DHT22;14238;49.496;8.154;2023-06-10T12:37:54;30.10;86.60
26595;DHT22;14238;49.496;8.154;2023-06-10T12:40:26;31.10;84.70
26595;DHT22;14238;49.496;8.154;2023-06-10T12:42:54;31.70;84.20
26595;DHT22;14238;49.496;8.154;2023-06-10T12:45:30;31.20;82.90
26595;DHT22;14238;49.496;8.154;2023-06-10T12:48:17;30.60;85.00
26595;DHT22;14238;49.496;8.154;2023-06-10T12:50:44;30.80;83.30
26595;DHT22;14238;49.496;8.154;2023-06-10T12:53:11;31.40;84.10
26595;DHT22;14238;49.496;8.154;2023-06-10T12:55:37;31.60;80.10
26595;DHT22;14238;49.496;8.154;2023-06-10T12:58:04;31.30;83.30
26595;DHT22;14238;49.496;8.154;2023-06-10T13:00:29;31.60;81.40
26595;DHT22;14238;49.496;8.154;2023-06-10T13:03:01;31.60;83.60
26595;DHT22;14238;49.496;8.154;2023-06-10T13:05:28;32.00;79.90
26595;DHT22;14238;49.496;8.154;2023-06-10T13:07:54;31.90;81.50
26595;DHT22;14238;49.496;8.154;2023-06-10T13:10:20;31.50;77.80
26595;DHT22;14238;49.496;8.154;2023-06-10T13:12:46;31.80;81.70
26595;DHT22;14238;49.496;8.154;2023-06-10T13:15:13;32.30;83.40
26595;DHT22;14238;49.496;8.154;2023-06-10T13:17:40;32.30;79.00
26595;DHT22;14238;49.496;8.154;2023-06-10T13:20:07;31.00;79.40
26595;DHT22;14238;49.496;8.154;2023-06-10T13:22:34;31.00;80.30
26595;DHT22;14238;49.496;8.154;2023-06-10T13:25:04;30.50;81.00
26595;DHT22;14238;49.496;8.154;2023-06-10T13:27:30;30.10;83.30
26595;DHT22;14238;49.496;8.154;2023-06-10T13:29:56;30.00;83.00
26595;DHT22;14238;49.496;8.154;2023-06-10T13:32:21;30.40;80.90
26595;DHT22;14238;49.496;8.154;2023-06-10T13:34:47;30.50;81.30
26595;DHT22;14238;49.496;8.154;2023-06-10T13:37:12;31.20;82.70
26595;DHT22;14238;49.496;8.154;2023-06-10T13:39:38;31.00;80.50
26595;DHT22;14238;49.496;8.154;2023-06-10T13:42:05;30.30;80.80
26595;DHT22;14238;49.496;8.154;2023-06-10T13:44:33;29.70;81.30
26595;DHT22;14238;49.496;8.154;2023-06-10T13:47:04;29.80;83.20
26595;DHT22;14238;49.496;8.154;2023-06-10T13:49:30;30.30;82.30
26595;DHT22;14238;49.496;8.154;2023-06-10T13:51:56;30.80;81.70
26595;DHT22;14238;49.496;8.154;2023-06-10T13:54:21;31.40;81.50
26595;DHT22;14238;49.496;8.154;2023-06-10T13:56:47;31.50;80.40
26595;DHT22;14238;49.496;8.154;2023-06-10T13:59:12;31.60;79.10
26595;DHT22;14238;49.496;8.154;2023-06-10T14:01:38;31.60;80.90
26595;DHT22;14238;49.496;8.154;2023-06-10T14:04:05;31.70;80.70
26595;DHT22;14238;49.496;8.154;2023-06-10T14:06:30;31.80;80.70
26595;DHT22;14238;49.496;8.154;2023-06-10T14:08:57;31.30;80.20
26595;DHT22;14238;49.496;8.154;2023-06-10T14:11:23;31.20;78.60
26595;DHT22;14238;49.496;8.154;2023-06-10T14:13:48;31.10;81.20
26595;DHT22;14238;49.496;8.154;2023-06-10T14:16:14;30.60;80.50
26595;DHT22;14238;49.496;8.154;2023-06-10T14:18:39;30.30;77.70
26595;DHT22;14238;49.496;8.154;2023-06-10T14:21:05;30.60;77.60
26595;DHT22;14238;49.496;8.154;2023-06-10T14:23:30;31.10;76.10
26595;DHT22;14238;49.496;8.154;2023-06-10T14:25:56;31.50;77.60
26595;DHT22;14238;49.496;8.154;2023-06-10T14:28:21;31.10;80.00
26595;DHT22;14238;49.496;8.154;2023-06-10T14:30:47;30.40;76.50
26595;DHT22;14238;49.496;8.154;2023-06-10T14:33:13;30.30;77.50
26595;DHT22;14238;49.496;8.154;2023-06-10T14:35:38;30.60;76.60
26595;DHT22;14238;49.496;8.154;2023-06-10T14:38:04;31.00;76.50
26595;DHT22;14238;49.496;8.154;2023-06-10T14:40:29;30.50;77.30
26595;DHT22;14238;49.496;8.154;2023-06-10T14:42:57;30.10;78.70
26595;DHT22;14238;49.496;8.154;2023-06-10T14:45:22;29.90;81.30
26595;DHT22;14238;49.496;8.154;2023-06-10T14:47:48;29.50;79.30
26595;DHT22;14238;49.496;8.154;2023-06-10T14:50:14;29.20;79.80
26595;DHT22;14238;49.496;8.154;2023-06-10T14:52:40;28.90;79.90
26595;DHT22;14238;49.496;8.154;2023-06-10T14:55:06;28.80;79.90
26595;DHT22;14238;49.496;8.154;2023-06-10T14:57:31;28.80;80.40
26595;DHT22;14238;49.496;8.154;2023-06-10T14:59:57;28.70;80.60
26595;DHT22;14238;49.496;8.154;2023-06-10T15:02:23;29.30;81.60
26595;DHT22;14238;49.496;8.154;2023-06-10T15:04:49;29.80;80.50
26595;DHT22;14238;49.496;8.154;2023-06-10T15:07:14;30.50;78.70
26595;DHT22;14238;49.496;8.154;2023-06-10T15:09:41;30.50;77.50
26595;DHT22;14238;49.496;8.154;2023-06-10T15:12:08;30.60;74.50
26595;DHT22;14238;49.496;8.154;2023-06-10T15:14:34;30.70;74.20
26595;DHT22;14238;49.496;8.154;2023-06-10T15:16:59;31.40;75.10
26595;DHT22;14238;49.496;8.154;2023-06-10T15:19:26;31.60;75.10
26595;DHT22;14238;49.496;8.154;2023-06-10T15:21:52;31.90;77.50
26595;DHT22;14238;49.496;8.154;2023-06-10T15:24:18;31.70;73.50
26595;DHT22;14238;49.496;8.154;2023-06-10T15:26:44;31.30;76.90
26595;DHT22;14238;49.496;8.154;2023-06-10T15:29:09;31.40;75.20
26595;DHT22;14238;49.496;8.154;2023-06-10T15:31:35;31.70;76.30
26595;DHT22;14238;49.496;8.154;2023-06-10T15:34:01;32.00;76.40